Observations for WASHINGTON NATIONAL, VA (DCA)

KDCA 241721Z 06007KT 9SM OVC005 11/11 A3013 RMK AO2 T01110106
KDCA 241652Z 03006KT 7SM OVC004 11/11 A3016 RMK AO2 SLP211 T01110106
KDCA 241629Z 02007KT 3SM BR OVC003 11/11 A3017 RMK AO2 T01060106
KDCA 241552Z 05008KT 1SM R01/P6000FT BR OVC003 11/11 A3016 RMK AO2 SLP212 VIS 3/4V11/4 T01060106
KDCA 241508Z 04005KT 1SM R01/2800V4500FT BR OVC002 11/11 A3017 RMK AO2 VIS 1/2V1 T01060106
KDCA 241503Z 04005KT 1/2SM R01/2200V3500FT FG VV003 11/11 A3018 RMK AO2 T01060106
KDCA 241452Z 03006KT 1/4SM R01/1800V2000FT FG VV003 11/11 A3018 RMK AO2 SLP218 VIS 1/8V1/4 T01060106 51007  
KDCA 241414Z 04006KT 1/4SM R01/1800V2000FT FG VV003 11/11 A3018 RMK AO2 VIS 1/8V1/4 T01060106
KDCA 241352Z 04005KT 1/8SM R01/1600V1800FT FG VV003 11/11 A3018 RMK AO2 SLP218 VIS 1/16V1/4 T01060106   
KDCA 241252Z 04003KT 1/8SM R01/1200V1400FT FG VV002 10/10 A3017 RMK AO2 SLP218 VIS 1/16V1/4 T01000100   
KDCA 241152Z 07004KT 1/8SM R01/1200FT FG VV002 10/10 A3015 RMK AO2 SLP211 T01000100 10100 20089 58008   
KDCA 241107Z 07004KT 1/4SM R01/1200V1400FT FG VV002 10/10 A3015 RMK AO2 PRESFR T01000100
KDCA 241147Z 07003KT 1/8SM R01/1200V1400FT FG VV002 10/10 A3016 RMK AO2
KDCA 241052Z 36005KT 1/4SM R01/1200V1400FT FG VV002 09/09 A3018 RMK AO2 SLP219 T00940094
KDCA 240952Z 00000KT 1/4SM R01/1400FT FG VV002 09/09 A3016 RMK AO2 SLP214 T00940094 
KDCA 240852Z 00000KT 1/8SM R01/1600V1800FT FG VV002 09/09 A3018 RMK AO2 SLP219 T00940094 58020  
KDCA 240808Z 00000KT 1/8SM R01/1800V2400FT FG VV003 09/09 A3019 RMK AO2 T00940094
KDCA 240820Z 00000KT 1/8SM R01/2000V2200FT FG VV003 09/09 A3019 RMK AO2 T00940094
KDCA 240752Z 00000KT 1/16SM R01/1800V2000FT FG VV002 09/09 A3019 RMK AO2 SLP224 T00940094   
KDCA 240729Z 00000KT 1/8SM R01/2200V2600FT FG VV002 09/09 A3022 RMK AO2 T00940094
KDCA 240744Z 00000KT 1/16SM R01/1800V2000FT FG VV002 09/09 A3020 RMK AO2 T00940094
KDCA 240652Z 00000KT 1/4SM R01/4000V5500FT FG OVC003 09/09 A3023 RMK AO2 SLP236 T00940089   
KDCA 240552Z 18005KT 1/4SM R01/5500VP6000FT FG OVC002 09/09 A3024 RMK AO2 SLP239 60000 T00890089 10089 20078 56018  
KDCA 240541Z 18004KT 1/2SM R01/P6000FT FG OVC003 09/09 A3024 RMK AO2 T00890089
KDCA 240452Z 18004KT 1 1/2SM BR OVC003 09/09 A3025 RMK AO2 SLP242 T00890089 400890050   
KDCA 240416Z 19005KT 2SM BR OVC003 09/08 A3026 RMK AO2 T00890083
KDCA 240352Z 19003KT 3SM BR OVC004 08/08 A3028 RMK AO2 DZE48 SLP252 VIS SW 2 1/2 P0000 T00830083
KDCA 240314Z 20005KT 2 1/2SM -DZ BR OVC003 08/08 A3029 RMK AO2 P0000 T00830083
KDCA 240252Z 19006KT 2 1/2SM -DZ BR SCT002 OVC004 08/08 A3029 RMK AO2 SLP258 P0000 60000 T00830078 58011
KDCA 240240Z 20005KT 2 1/2SM -DZ BR SCT002 OVC004 08/08 A3029 RMK AO2 P0000 T00830078
KDCA 240208Z 20005KT 3SM -DZ BR SCT002 OVC004 08/08 A3031 RMK AO2 P0000 T00830078
KDCA 240152Z 18005KT 4SM -DZ BR SCT002 OVC005 08/08 A3030 RMK AO2 SLP261 P0000 T00830078
KDCA 240109Z 18006KT 4SM -DZ BR SCT002 OVC005 08/08 A3032 RMK AO2 VIS S-SW 2 1/2 P0000 T00780078
KDCA 240052Z 18005KT 6SM -DZ BR SCT004 OVC006 08/07 A3032 RMK AO2 DZB37 SLP268 VIS S-SW 2 1/2 P0000 T00830072   
KDCA 240038Z 18005KT 9SM -DZ SCT005 OVC008 08/07 A3033 RMK AO2 DZB37 VIS S-SW 3P0000 T00830072
KDCA 240016Z 18007KT 10SM OVC009 08/07 A3033 RMK AO2 T00830072
KDCA 240047Z 18005KT 6SM -DZ BR SCT004 OVC006 08/07 A3033 RMK AO2 DZB37 VIS S-SW 3 P0000
KDCA 232352Z 17006KT 10SM OVC010 08/07 A3033 RMK AO2 SLP271 60000 T00830067 10089 20067 58017   
KDCA 232252Z 18006KT 10SM OVC011 08/07 A3035 RMK AO2 SLP277 T00830067   
KDCA 232152Z 18005KT 10SM OVC011 08/07 A3036 RMK AO2 SLP282 T00830067   
KDCA 232052Z 20005KT 10SM OVC011 08/07 A3038 RMK AO2 SLP287 60000 T00830067 56037   
KDCA 231952Z 20006KT 10SM OVC012 08/06 A3041 RMK AO2 SLP298 T00780061   
KDCA 231921Z 20005KT 10SM OVC010 08/06 A3042 RMK AO2 T00780061
KDCA 231852Z 19006KT 10SM OVC008 08/06 A3043 RMK AO2 DZE46 SLP302 P0000 T00780061   
KDCA 231840Z 18005KT 3SM -DZ BR OVC008 07/06 A3044 RMK AO2 P0000 T00720061
KDCA 231840Z COR 18005KT 7SM -DZ OVC008 07/06 A3044 RMK AO2 P0000 T00720061
KDCA 231752Z 00000KT 3SM -DZ BR OVC010 07/06 A3049 RMK AO2 SLP324 P0000 60000 T00670056 10067 20050 58030 $ 
KDCA 231652Z 00000KT 3SM -DZ BR OVC010 06/06 A3053 RMK AO2 DZB26 SLP337 P0000 T00610056 
KDCA 231626Z 11005KT 3SM -DZ BR OVC011 06/05 A3054 RMK AO2 DZB26 P0000 T00610050